^^
Anthem North Phoenix Station Historical Data
 
Daily Summary for October 15, 2018 Units:  English    Metric   Both
Daily Weekly Monthly Yearly Custom
  Current: High: Low: Average:
Temperature: 65.5 °F 74.1 °F 57 °F 64.6 °F
Dew Point: 32.4 °F 56.5 °F 26.9 °F 34 °F
Humidity: 29% 85% 22% 34%
Wind Speed: 6.2mph 18.8mph 1.7mph 9.1mph
Wind Gust: 8.1mph 24.2mph - -
WindNorth - - SSE
Pressure: 30.01 in 30.10 in 29.99 in -
Precipitation: 0.02 in      
Historical Graphs
 
 
Tabular Data for October 15, 2018
Time Temperature Dew Point Pressure Wind Wind Speed Wind Gust Humidity Rainfall Rate (Hourly)
00:04 61.7 °F 56.5 °F 30.01 in NW 3.8 mph 5.8 mph 83% 0 in
00:09 61.5 °F 56.3 °F 30.01 in NNW 3 mph 4.6 mph 83% 0 in
00:14 61.4 °F 56.2 °F 30.01 in NNE 2.3 mph 5 mph 83% 0 in
00:19 61.3 °F 56.1 °F 30.02 in NNE 1.7 mph 3.5 mph 83% 0 in
00:24 61.2 °F 56.3 °F 30.01 in NNE 2.6 mph 5.8 mph 84% 0 in
00:29 60.8 °F 55.9 °F 30.02 in NNW 6 mph 8.1 mph 84% 0 in
00:34 60.7 °F 56.2 °F 30.02 in North 5.3 mph 6.9 mph 85% 0 in
00:39 60.5 °F 56 °F 30.02 in North 5 mph 8.1 mph 85% 0 in
00:44 60.6 °F 55.7 °F 30.02 in NNE 6.1 mph 6.9 mph 84% 0 in
00:48 60.6 °F 55.7 °F 30.02 in North 6 mph 6.9 mph 84% 0 in
00:54 60.9 °F 54.7 °F 30.02 in NNE 11 mph 11.5 mph 80% 0 in
00:59 61.2 °F 53.2 °F 30.02 in NNE 8.5 mph 16.1 mph 75% 0 in
01:04 61.7 °F 49.8 °F 30.02 in NNW 9.2 mph 16.1 mph 65% 0 in
01:09 61.9 °F 48.3 °F 30.02 in NNE 11 mph 15 mph 61% 0 in
01:14 61.7 °F 45.8 °F 30.03 in NE 10.7 mph 13.8 mph 56% 0 in
01:19 61.8 °F 42.4 °F 30.03 in WNW 15 mph 15 mph 49% 0 in
01:23 61.8 °F 42.4 °F 30.03 in North 11.7 mph 23 mph 49% 0 in
01:29 61.9 °F 39.7 °F 30.03 in WNW 17 mph 17.3 mph 44% 0 in
01:34 61.6 °F 40.6 °F 30.03 in NNE 11.5 mph 13.8 mph 46% 0 in
01:39 61.4 °F 41 °F 30.03 in NNE 9.3 mph 11.5 mph 47% 0 in
01:44 60.8 °F 42 °F 30.03 in NNE 8.1 mph 11.5 mph 50% 0 in
01:48 60.6 °F 42.4 °F 30.03 in NNE 10.1 mph 13.8 mph 51% 0 in
01:54 59.9 °F 43.2 °F 30.03 in NNE 11.2 mph 12.7 mph 54% 0 in
01:59 59.8 °F 43.1 °F 30.03 in North 9.9 mph 11.5 mph 54% 0 in
02:04 59.7 °F 43.5 °F 30.03 in NE 9.5 mph 9.2 mph 55% 0 in
02:09 59.2 °F 44 °F 30.04 in North 12 mph 11.5 mph 57% 0 in
02:14 59.3 °F 43.6 °F 30.04 in NNE 8.1 mph 10.4 mph 56% 0 in
02:19 59.9 °F 41.7 °F 30.04 in NE 11.1 mph 16 mph 51% 0 in
02:24 60 °F 41.8 °F 30.04 in NNW 18.8 mph 19.6 mph 51% 0 in
02:29 60.3 °F 40.5 °F 30.04 in NE 11.1 mph 12.7 mph 48% 0 in
02:34 60.4 °F 37.8 °F 30.04 in NNE 7.6 mph 18.4 mph 43% 0 in
02:38 60.4 °F 37.8 °F 30.04 in NNE 8.2 mph 16.1 mph 43% 0 in
02:43 60.6 °F 36.8 °F 30.04 in NNE 15.8 mph 17.3 mph 41% 0 in
02:49 60.7 °F 36.2 °F 30.04 in NNW 17 mph 17.3 mph 40% 0 in
02:54 60.6 °F 35.5 °F 30.04 in NNE 8.9 mph 11.5 mph 39% 0 in
02:59 60.6 °F 36.1 °F 30.04 in NNE 12.6 mph 13.8 mph 40% 0 in
03:04 60.4 °F 35.3 °F 30.03 in NNE 11.9 mph 13.8 mph 39% 0 in
03:08 60.4 °F 34.7 °F 30.03 in NNE 11.6 mph 15 mph 38% 0 in
03:14 60.2 °F 34.5 °F 30.03 in NNW 10.5 mph 16.1 mph 38% 0 in
03:19 60.1 °F 35 °F 30.03 in East 17.4 mph 19.6 mph 39% 0 in
03:24 60.6 °F 34.2 °F 30.03 in South 12 mph 13.8 mph 37% 0 in
03:29 60.6 °F 34.2 °F 30.04 in NNE 8 mph 12.7 mph 37% 0 in
03:34 60.5 °F 34.7 °F 30.04 in NNE 9.3 mph 12.7 mph 38% 0 in
03:39 60.2 °F 34.5 °F 30.04 in NNW 10.3 mph 15 mph 38% 0 in
03:44 59.7 °F 34.7 °F 30.04 in NNE 11 mph 12.7 mph 39% 0 in
03:49 59.6 °F 34.6 °F 30.04 in North 12.4 mph 12.7 mph 39% 0 in
03:54 59.4 °F 33.8 °F 30.04 in NNE 9.4 mph 11.5 mph 38% 0 in
03:59 59.2 °F 34.2 °F 30.04 in NNE 15.8 mph 19.6 mph 39% 0 in
04:04 59.2 °F 33.6 °F 30.05 in NNE 14.4 mph 19.6 mph 38% 0 in
04:09 59.1 °F 33.5 °F 30.04 in NNW 14 mph 19.6 mph 38% 0 in
04:14 59.1 °F 34.1 °F 30.04 in NNE 9.2 mph 13.8 mph 39% 0 in
04:17 58.9 °F 34 °F 30.04 in NE 14.5 mph 20.7 mph 39% 0 in
04:24 59.1 °F 34.1 °F 30.04 in NNE 12.5 mph 19.6 mph 39% 0 in
04:29 59 °F 33.4 °F 30.04 in NW 12 mph 15 mph 38% 0 in
04:33 58.9 °F 33.3 °F 30.04 in NNW 12.2 mph 13.8 mph 38% 0 in
04:38 58.8 °F 33.2 °F 30.04 in NE 14 mph 13.8 mph 38% 0 in
04:44 58.7 °F 33.8 °F 30.04 in NNW 9.7 mph 10.4 mph 39% 0 in
04:48 58.4 °F 33.5 °F 30.04 in NNE 10.3 mph 16.1 mph 39% 0 in
04:53 58.4 °F 32.9 °F 30.05 in NW 13 mph 12.7 mph 38% 0 in
04:58 58.3 °F 32.8 °F 30.04 in North 9.7 mph 11.5 mph 38% 0 in
05:04 58.2 °F 32.7 °F 30.04 in North 6 mph 11.5 mph 38% 0 in
05:09 58.1 °F 32.6 °F 30.04 in NNE 11.8 mph 13.8 mph 38% 0 in
05:14 57.9 °F 32.4 °F 30.04 in NE 7.4 mph 16.1 mph 38% 0 in
05:19 58.2 °F 32 °F 30.05 in NNE 9 mph 16.1 mph 37% 0 in
05:24 58.1 °F 32.6 °F 30.05 in NE 13.4 mph 12.7 mph 38% 0 in
05:29 58.1 °F 31.3 °F 30.05 in North 10.8 mph 11.5 mph 36% 0 in
05:34 58.1 °F 31.9 °F 30.05 in NNW 10.3 mph 17.3 mph 37% 0 in
05:39 58.1 °F 31.9 °F 30.05 in NNE 11 mph 16.1 mph 37% 0 in
05:44 58.1 °F 30.6 °F 30.05 in North 12 mph 19.6 mph 35% 0 in
05:49 58 °F 31.2 °F 30.05 in ENE 9.2 mph 10.4 mph 36% 0 in
05:53 57.9 °F 31.1 °F 30.05 in North 10.6 mph 15 mph 36% 0 in
05:59 58 °F 31.2 °F 30.05 in NNE 9 mph 10.4 mph 36% 0 in
06:04 57.8 °F 31 °F 30.05 in North 12 mph 16.1 mph 36% 0 in
06:09 57.7 °F 30.9 °F 30.05 in NNW 15 mph 15 mph 36% 0 in
06:14 57.5 °F 30.7 °F 30.05 in NNE 10.7 mph 12.7 mph 36% 0 in
06:19 57.4 °F 30.6 °F 30.06 in NE 9.1 mph 11.5 mph 36% 0 in
06:24 57.2 °F 31.1 °F 30.06 in NNW 10.1 mph 12.7 mph 37% 0 in
06:29 57.5 °F 30 °F 30.06 in NNE 11.9 mph 16.1 mph 35% 0 in
06:33 57.2 °F 30.5 °F 30.06 in NE 11.4 mph 20 mph 36% 0 in
06:39 57.3 °F 29.1 °F 30.06 in NW 12.8 mph 17.3 mph 34% 0 in
06:43 57.3 °F 29.9 °F 30.06 in NNW 12.4 mph 16.1 mph 35% 0 in
06:49 57.2 °F 29.8 °F 30.06 in NE 10.1 mph 17.3 mph 35% 0 in
06:54 57.2 °F 29.1 °F 30.07 in NNE 12.7 mph 20.7 mph 34% 0 in
06:59 57.2 °F 29.1 °F 30.07 in North 12.3 mph 17.3 mph 34% 0 in
07:04 57.3 °F 28.4 °F 30.07 in NNE 11.8 mph 19.6 mph 33% 0 in
07:09 57.3 °F 29.1 °F 30.07 in NNW 12.6 mph 17.3 mph 34% 0 in
07:13 57.3 °F 28.4 °F 30.07 in NE 13.7 mph 23 mph 33% 0 in
07:19 57.2 °F 29.8 °F 30.08 in NNE 12.1 mph 19.6 mph 35% 0 in
07:23 57 °F 28.9 °F 30.08 in NNE 10.7 mph 15 mph 34% 0 in
07:29 57.2 °F 29.1 °F 30.08 in NNW 11.8 mph 17.3 mph 34% 0 in
07:34 57.3 °F 28.4 °F 30.08 in ENE 11.7 mph 17.3 mph 33% 0 in
07:38 57.5 °F 27.8 °F 30.08 in NNE 11.3 mph 19 mph 32% 0 in
07:44 57.7 °F 28.8 °F 30.09 in NNE 11.1 mph 16.1 mph 33% 0 in
07:49 57.9 °F 28.2 °F 30.09 in NNE 15.9 mph 21 mph 32% 0 in
07:53 58 °F 27.5 °F 30.09 in NNW 12.9 mph 24.2 mph 31% 0 in
07:59 58.3 °F 27.8 °F 30.09 in NE 12.2 mph 18.4 mph 31% 0 in
08:04 58.7 °F 28.1 °F 30.09 in North 12.3 mph 20 mph 31% 0 in
08:08 59.1 °F 28.5 °F 30.09 in North 12.7 mph 19.6 mph 31% 0 in
08:14 59.2 °F 27.7 °F 30.10 in NNE 10.7 mph 23 mph 30% 0 in
08:19 59.5 °F 28 °F 30.10 in North 10.9 mph 17.3 mph 30% 0 in
08:24 59.8 °F 28.3 °F 30.10 in North 12 mph 22 mph 30% 0 in
08:29 60.1 °F 26.9 °F 30.09 in NE 12 mph 18.4 mph 28% 0 in
08:33 60.2 °F 26.9 °F 30.09 in NNE 13.3 mph 19.6 mph 28% 0 in
08:39 60.4 °F 28 °F 30.09 in NNE 9.9 mph 15 mph 29% 0 in
08:43 60.6 °F 28.1 °F 30.09 in NE 10.4 mph 15 mph 29% 0 in
08:48 60.7 °F 29.1 °F 30.10 in NNW 9.9 mph 15 mph 30% 0 in
08:53 60.7 °F 29.9 °F 30.10 in NNE 11.6 mph 19.6 mph 31% 0 in
08:59 60.8 °F 29.1 °F 30.10 in North 12.2 mph 19.6 mph 30% 0 in
09:04 61 °F 29.3 °F 30.10 in NNE 12.3 mph 18.4 mph 30% 0 in
09:09 61.3 °F 29.6 °F 30.10 in North 11.3 mph 20.7 mph 30% 0 in
09:14 61.5 °F 28.1 °F 30.10 in NW 11.5 mph 21 mph 28% 0 in
09:18 61.6 °F 29 °F 30.10 in WNW 12.6 mph 16.1 mph 29% 0 in
09:24 61.9 °F 28.4 °F 30.10 in NE 11.3 mph 17.3 mph 28% 0 in
09:29 62.1 °F 28.6 °F 30.10 in NNE 8.2 mph 15 mph 28% 0 in
09:33 62.2 °F 28.7 °F 30.10 in NNE 13.6 mph 21 mph 28% 0 in
09:39 62.5 °F 28.9 °F 30.09 in NNE 10.6 mph 19.6 mph 28% 0 in
09:43 62.5 °F 28.9 °F 30.10 in NE 14 mph 22 mph 28% 0 in
09:49 62.8 °F 29.2 °F 30.10 in North 10.7 mph 24.2 mph 28% 0 in
09:54 63 °F 28.5 °F 30.10 in NNE 12.8 mph 20 mph 27% 0 in
09:59 63.2 °F 29.5 °F 30.09 in NNW 13.6 mph 19.6 mph 28% 0 in
10:04 63.3 °F 28.7 °F 30.10 in North 12.7 mph 20.7 mph 27% 0 in
10:09 63.2 °F 27.7 °F 30.09 in East 14.1 mph 19.6 mph 26% 0 in
10:14 63.3 °F 28.7 °F 30.09 in NNE 14 mph 23 mph 27% 0 in
10:19 63.8 °F 29.1 °F 30.09 in North 11.5 mph 18.4 mph 27% 0 in
10:23 64.2 °F 28.6 °F 30.09 in NNW 11.3 mph 19.6 mph 26% 0 in
10:29 64.7 °F 30.8 °F 30.08 in NNW 9.8 mph 17 mph 28% 0 in
10:34 64.8 °F 30 °F 30.09 in NNE 11.7 mph 19.6 mph 27% 0 in
10:39 64.9 °F 30.1 °F 30.09 in North 12.2 mph 13.8 mph 27% 0 in
10:44 65.4 °F 31.4 °F 30.09 in North 11.2 mph 19.6 mph 28% 0 in
10:49 65.7 °F 30.8 °F 30.08 in NNE 10.9 mph 17 mph 27% 0 in
10:53 65.7 °F 29.8 °F 30.08 in North 10 mph 15 mph 26% 0 in
10:59 66.2 °F 30.3 °F 30.08 in NNW 9.8 mph 15 mph 26% 0 in
11:04 66.3 °F 30.4 °F 30.08 in NNE 10.1 mph 15 mph 26% 0 in
11:09 66.4 °F 30.4 °F 30.08 in WNW 12.1 mph 18.4 mph 26% 0 in
11:14 66.7 °F 30.7 °F 30.08 in NNE 9.4 mph 15 mph 26% 0 in
11:19 67 °F 31 °F 30.08 in NNE 9.1 mph 12.7 mph 26% 0.02 in
11:24 67.1 °F 32 °F 30.08 in East 9.9 mph 15 mph 27% 0.02 in
11:29 67.4 °F 32.2 °F 30.08 in NNW 9.4 mph 13.8 mph 27% 0.02 in
11:33 67.6 °F 31.5 °F 30.08 in NE 10.7 mph 15 mph 26% 0.02 in
11:39 68.1 °F 32.8 °F 30.07 in NE 8.9 mph 15 mph 27% 0.02 in
11:44 68.3 °F 32.1 °F 30.07 in NE 8.9 mph 13 mph 26% 0.02 in
11:49 68.5 °F 32.2 °F 30.07 in NNE 8.8 mph 15 mph 26% 0.02 in
11:54 68.8 °F 32.5 °F 30.07 in NNE 9.4 mph 16.1 mph 26% 0.02 in
11:59 69.2 °F 32.8 °F 30.07 in NE 6.8 mph 10.4 mph 26% 0.02 in
12:02 69.2 °F 31.9 °F 30.06 in NW 8.8 mph 14 mph 25% 0.02 in
12:03 69.3 °F 32.9 °F 30.06 in NW 8.4 mph 13.8 mph 26% 0.02 in
12:10 69.6 °F 32.2 °F 30.06 in NE 7.6 mph 11.5 mph 25% 0.02 in
12:18 70.1 °F 33.6 °F 30.06 in NE 7.3 mph 12.7 mph 26% 0 in
12:24 70.4 °F 33.9 °F 30.06 in NW 5.9 mph 8.1 mph 26% 0 in
12:29 70.9 °F 36.1 °F 30.05 in NW 5.7 mph 12.7 mph 28% 0 in
12:34 70.9 °F 32.3 °F 30.05 in North 5.9 mph 10.4 mph 24% 0 in
12:39 71 °F 33.4 °F 30.05 in NNE 8 mph 12.7 mph 25% 0 in
12:44 70.9 °F 32.3 °F 30.05 in NNW 6.6 mph 12.7 mph 24% 0 in
12:48 71.4 °F 33.7 °F 30.05 in NNE 7.5 mph 11.5 mph 25% 0 in
12:54 71.4 °F 33.7 °F 30.04 in NE 5 mph 9.2 mph 25% 0 in
12:59 71.6 °F 33.9 °F 30.04 in NNW 4.7 mph 10.4 mph 25% 0 in
13:04 71.6 °F 32.9 °F 30.04 in NNE 6.2 mph 11.5 mph 24% 0 in
13:09 71.9 °F 35.1 °F 30.04 in NW 5.1 mph 11.5 mph 26% 0 in
13:14 71.9 °F 33.1 °F 30.04 in NNW 5 mph 8.1 mph 24% 0 in
13:19 71.8 °F 33 °F 30.04 in North 7.1 mph 12.7 mph 24% 0 in
13:24 71.8 °F 33 °F 30.03 in North 5 mph 10.4 mph 24% 0 in
13:29 71.8 °F 33 °F 30.03 in NW 5.9 mph 11.5 mph 24% 0 in
13:34 72.2 °F 35.4 °F 30.03 in NE 4.7 mph 13.8 mph 26% 0 in
13:38 72.3 °F 33.5 °F 30.03 in NNW 5.7 mph 11.5 mph 24% 0 in
13:44 72.5 °F 34.7 °F 30.02 in NNW 5.4 mph 6.9 mph 25% 0 in
13:49 72.5 °F 33.6 °F 30.02 in NNE 10.1 mph 11.5 mph 24% 0 in
13:54 72.5 °F 33.6 °F 30.02 in NW 5 mph 5.8 mph 24% 0 in
13:59 73 °F 34.1 °F 30.02 in NNE 4.6 mph 6.9 mph 24% 0 in
14:04 72.9 °F 34 °F 30.02 in NNE 4.9 mph 5.8 mph 24% 0 in
14:08 72.9 °F 34 °F 30.02 in WNW 4.4 mph 6.9 mph 24% 0 in
14:14 73 °F 34.1 °F 30.02 in NW 3.2 mph 5 mph 24% 0 in
14:19 73.1 °F 36.2 °F 30.01 in NW 2.7 mph 4.6 mph 26% 0 in
14:24 73.4 °F 34.4 °F 30.01 in NNE 6.2 mph 9.2 mph 24% 0 in
14:29 73.2 °F 33.2 °F 30.02 in ENE 4.8 mph 9.2 mph 23% 0 in
14:34 73.2 °F 34.2 °F 30.02 in NNW 4.5 mph 11.5 mph 24% 0 in
14:39 73.4 °F 34.4 °F 30.01 in NNW 5 mph 10.4 mph 24% 0 in
14:41 73.4 °F 34.4 °F 30.01 in NNE 4.9 mph 11 mph 24% 0 in
14:49 73.5 °F 33.4 °F 30.01 in NNE 4.7 mph 9 mph 23% 0 in
14:54 73.3 °F 34.3 °F 30.01 in NW 1.7 mph 4.6 mph 24% 0 in
14:59 73.4 °F 33.3 °F 30.01 in NW 4.6 mph 8.1 mph 23% 0 in
15:04 73.7 °F 34.6 °F 30.00 in NW 4.4 mph 9.2 mph 24% 0 in
15:09 73.7 °F 33.6 °F 30.00 in NNW 4.4 mph 6.9 mph 23% 0 in
15:14 73.4 °F 33.3 °F 30.00 in NNW 3.6 mph 7 mph 23% 0 in
15:19 73.7 °F 34.6 °F 30.00 in NNW 5.4 mph 8.1 mph 24% 0 in
15:24 74 °F 33.8 °F 30.00 in NNW 5 mph 8.1 mph 23% 0 in
15:29 73.8 °F 33.7 °F 30.00 in North 6.8 mph 10.4 mph 23% 0 in
15:34 73.9 °F 33.7 °F 30.00 in North 4.3 mph 7 mph 23% 0 in
15:39 74.1 °F 33.9 °F 30.00 in NNW 5.7 mph 9.2 mph 23% 0 in
15:43 73.7 °F 33.6 °F 30.00 in NE 8.3 mph 15 mph 23% 0 in
15:49 73.6 °F 33.5 °F 30.00 in NNE 5.1 mph 10.4 mph 23% 0 in
15:54 73.3 °F 33.2 °F 30.00 in NNW 3.9 mph 4.6 mph 23% 0 in
15:59 73.4 °F 33.3 °F 30.00 in NNE 6.4 mph 10.4 mph 23% 0 in
16:04 73 °F 33 °F 30.00 in NE 8.1 mph 9.2 mph 23% 0 in
16:09 72.9 °F 32.9 °F 30.00 in NNW 7.3 mph 11.5 mph 23% 0 in
16:14 72.9 °F 31.8 °F 30.00 in NW 4.5 mph 7 mph 22% 0 in
16:19 72.7 °F 32.7 °F 30.00 in NNE 5.3 mph 6.9 mph 23% 0 in
16:24 72.6 °F 32.7 °F 30.00 in NW 6.1 mph 9.2 mph 23% 0 in
16:29 72.5 °F 31.5 °F 30.00 in NE 6.4 mph 17.3 mph 22% 0 in
16:34 72.3 °F 32.4 °F 30.00 in NW 7.1 mph 11.5 mph 23% 0 in
16:39 72.3 °F 33.5 °F 30.00 in NNW 4.6 mph 9.2 mph 24% 0 in
16:44 72.2 °F 33.4 °F 30.00 in NW 5.4 mph 7 mph 24% 0 in
16:49 71.9 °F 32.1 °F 30.00 in North 7.6 mph 11.5 mph 23% 0 in
16:53 71.7 °F 31.9 °F 29.99 in NNW 7 mph 11.5 mph 23% 0 in
16:59 71.6 °F 32.9 °F 30.00 in North 4.8 mph 5.8 mph 24% 0 in
17:03 71.3 °F 32.6 °F 29.99 in NE 7.4 mph 12 mph 24% 0 in
17:09 71.1 °F 31.4 °F 29.99 in NNE 5.2 mph 8.1 mph 23% 0 in
17:14 70.8 °F 32.2 °F 30.00 in North 7.4 mph 13.8 mph 24% 0 in
17:18 70.6 °F 32 °F 30.00 in ENE 7 mph 12.7 mph 24% 0 in
17:24 70.2 °F 32.7 °F 29.99 in North 4.5 mph 9.2 mph 25% 0 in
17:28 69.9 °F 31.4 °F 29.99 in NW 7 mph 10.4 mph 24% 0 in
17:34 69.7 °F 32.3 °F 30.00 in NNE 6.5 mph 11.5 mph 25% 0 in
17:38 69.4 °F 31 °F 29.99 in NNE 6.7 mph 11.5 mph 24% 0 in
17:43 69.2 °F 31.9 °F 29.99 in NNE 6.4 mph 13.8 mph 25% 0 in
17:49 68.9 °F 31.6 °F 29.99 in NNW 8.2 mph 11.5 mph 25% 0 in
17:54 68.5 °F 31.3 °F 30.00 in NNE 8.3 mph 13.8 mph 25% 0 in
17:58 68.4 °F 31.2 °F 30.00 in NNW 9.3 mph 13.8 mph 25% 0 in
18:03 68.1 °F 30.9 °F 30.00 in North 8.6 mph 11.5 mph 25% 0 in
18:09 67.7 °F 31.6 °F 30.00 in North 7.6 mph 11.5 mph 26% 0 in
18:13 67.5 °F 31.4 °F 30.00 in NE 8 mph 11.5 mph 26% 0 in
18:18 67.2 °F 32.1 °F 30.00 in NE 6.7 mph 11.5 mph 27% 0 in
18:24 67.2 °F 32.1 °F 30.00 in NNE 8.2 mph 11.5 mph 27% 0 in
18:28 67.1 °F 32 °F 30.00 in North 9.5 mph 16.1 mph 27% 0 in
18:33 66.9 °F 31.8 °F 30.00 in NNE 7.5 mph 10.4 mph 27% 0 in
18:39 66.5 °F 32.4 °F 30.01 in NNE 6 mph 10.4 mph 28% 0 in
18:44 66.4 °F 32.3 °F 30.01 in NE 11.3 mph 12.7 mph 28% 0 in
18:49 65.9 °F 32.7 °F 30.01 in NNW 5.5 mph 5.8 mph 29% 0 in
18:53 65.6 °F 32.5 °F 30.01 in North 6.3 mph 9.2 mph 29% 0 in
18:59 65.5 °F 32.4 °F 30.01 in North 6.2 mph 8.1 mph 29% 0 in
18:59 65.5 °F 32.4 °F 30.01 in North 6.2 mph 8.1 mph 29% 0 in
Anthen North Phoenix Weather
Compliments of Weather Underground - 2 mb